sensor_id;sensor_type;location;lat;lon;timestamp;P1;durP1;ratioP1;P2;durP2;ratioP2
23573;SDS011;11965;53.640;10.050;2023-04-06T00:00:44;14.22;;;14.20;;
23573;SDS011;11965;53.640;10.050;2023-04-06T00:03:13;13.93;;;13.82;;
23573;SDS011;11965;53.640;10.050;2023-04-06T00:05:40;13.87;;;13.87;;
23573;SDS011;11965;53.640;10.050;2023-04-06T00:08:07;13.83;;;13.81;;
23573;SDS011;11965;53.640;10.050;2023-04-06T00:10:34;13.97;;;13.95;;
23573;SDS011;11965;53.640;10.050;2023-04-06T00:13:02;13.88;;;13.88;;
23573;SDS011;11965;53.640;10.050;2023-04-06T00:15:29;13.64;;;13.62;;
23573;SDS011;11965;53.640;10.050;2023-04-06T00:17:56;13.99;;;13.99;;
23573;SDS011;11965;53.640;10.050;2023-04-06T00:20:24;14.20;;;14.16;;
23573;SDS011;11965;53.640;10.050;2023-04-06T00:22:51;13.68;;;13.68;;
23573;SDS011;11965;53.640;10.050;2023-04-06T00:25:19;13.63;;;13.52;;
23573;SDS011;11965;53.640;10.050;2023-04-06T00:27:46;13.60;;;13.60;;
23573;SDS011;11965;53.640;10.050;2023-04-06T00:30:13;13.39;;;13.39;;
23573;SDS011;11965;53.640;10.050;2023-04-06T00:32:41;14.11;;;14.10;;
23573;SDS011;11965;53.640;10.050;2023-04-06T00:35:08;13.94;;;13.94;;
23573;SDS011;11965;53.640;10.050;2023-04-06T00:37:36;13.17;;;13.01;;
23573;SDS011;11965;53.640;10.050;2023-04-06T00:40:04;13.62;;;13.61;;
23573;SDS011;11965;53.640;10.050;2023-04-06T00:42:32;13.20;;;13.20;;
23573;SDS011;11965;53.640;10.050;2023-04-06T00:44:59;13.45;;;13.45;;
23573;SDS011;11965;53.640;10.050;2023-04-06T00:47:28;13.76;;;13.76;;
23573;SDS011;11965;53.640;10.050;2023-04-06T00:49:56;13.97;;;13.97;;
23573;SDS011;11965;53.640;10.050;2023-04-06T00:52:23;14.46;;;14.40;;
23573;SDS011;11965;53.640;10.050;2023-04-06T00:54:52;14.69;;;14.63;;
23573;SDS011;11965;53.640;10.050;2023-04-06T00:57:21;15.48;;;15.43;;
23573;SDS011;11965;53.640;10.050;2023-04-06T00:59:53;15.52;;;15.51;;
23573;SDS011;11965;53.640;10.050;2023-04-06T01:02:21;15.68;;;15.50;;
23573;SDS011;11965;53.640;10.050;2023-04-06T01:04:51;15.83;;;15.77;;
23573;SDS011;11965;53.640;10.050;2023-04-06T01:07:27;15.63;;;15.54;;
23573;SDS011;11965;53.640;10.050;2023-04-06T01:10:10;15.49;;;15.47;;
23573;SDS011;11965;53.640;10.050;2023-04-06T01:12:37;15.77;;;15.75;;
23573;SDS011;11965;53.640;10.050;2023-04-06T01:15:11;15.91;;;15.89;;
23573;SDS011;11965;53.640;10.050;2023-04-06T01:17:43;15.41;;;15.40;;
23573;SDS011;11965;53.640;10.050;2023-04-06T01:20:14;15.42;;;15.42;;
23573;SDS011;11965;53.640;10.050;2023-04-06T01:22:43;15.01;;;15.01;;
23573;SDS011;11965;53.640;10.050;2023-04-06T01:25:11;14.97;;;14.96;;
23573;SDS011;11965;53.640;10.050;2023-04-06T01:28:01;15.78;;;15.73;;
23573;SDS011;11965;53.640;10.050;2023-04-06T01:30:46;15.16;;;15.12;;
23573;SDS011;11965;53.640;10.050;2023-04-06T01:33:27;15.30;;;15.20;;
23573;SDS011;11965;53.640;10.050;2023-04-06T01:36:04;14.77;;;14.77;;
23573;SDS011;11965;53.640;10.050;2023-04-06T01:38:33;15.02;;;15.01;;
23573;SDS011;11965;53.640;10.050;2023-04-06T01:41:01;14.62;;;14.61;;
23573;SDS011;11965;53.640;10.050;2023-04-06T01:43:33;15.28;;;15.23;;
23573;SDS011;11965;53.640;10.050;2023-04-06T01:46:04;14.78;;;14.76;;
23573;SDS011;11965;53.640;10.050;2023-04-06T01:48:35;14.99;;;14.84;;
23573;SDS011;11965;53.640;10.050;2023-04-06T01:51:13;14.72;;;14.71;;
23573;SDS011;11965;53.640;10.050;2023-04-06T01:53:49;14.48;;;14.48;;
23573;SDS011;11965;53.640;10.050;2023-04-06T01:56:18;14.39;;;14.39;;
23573;SDS011;11965;53.640;10.050;2023-04-06T01:58:55;15.24;;;15.24;;
23573;SDS011;11965;53.640;10.050;2023-04-06T02:01:23;14.73;;;14.73;;
23573;SDS011;11965;53.640;10.050;2023-04-06T02:03:54;14.70;;;14.70;;
23573;SDS011;11965;53.640;10.050;2023-04-06T02:06:22;15.01;;;15.01;;
23573;SDS011;11965;53.640;10.050;2023-04-06T02:08:51;15.02;;;14.95;;
23573;SDS011;11965;53.640;10.050;2023-04-06T02:11:19;14.46;;;14.43;;
23573;SDS011;11965;53.640;10.050;2023-04-06T02:13:49;15.04;;;14.90;;
23573;SDS011;11965;53.640;10.050;2023-04-06T02:16:17;14.70;;;14.66;;
23573;SDS011;11965;53.640;10.050;2023-04-06T02:18:45;14.44;;;14.33;;
23573;SDS011;11965;53.640;10.050;2023-04-06T02:21:12;14.69;;;14.69;;
23573;SDS011;11965;53.640;10.050;2023-04-06T02:23:39;14.47;;;14.46;;
23573;SDS011;11965;53.640;10.050;2023-04-06T02:26:07;14.65;;;14.65;;
23573;SDS011;11965;53.640;10.050;2023-04-06T02:28:34;14.39;;;14.39;;
23573;SDS011;11965;53.640;10.050;2023-04-06T02:31:01;14.24;;;14.24;;
23573;SDS011;11965;53.640;10.050;2023-04-06T02:33:28;14.25;;;14.24;;
23573;SDS011;11965;53.640;10.050;2023-04-06T02:35:56;14.23;;;14.12;;
23573;SDS011;11965;53.640;10.050;2023-04-06T02:38:22;14.68;;;14.40;;
23573;SDS011;11965;53.640;10.050;2023-04-06T02:40:51;14.88;;;14.75;;
23573;SDS011;11965;53.640;10.050;2023-04-06T02:43:23;14.19;;;14.17;;
23573;SDS011;11965;53.640;10.050;2023-04-06T02:45:56;13.60;;;13.60;;
23573;SDS011;11965;53.640;10.050;2023-04-06T02:48:24;14.49;;;14.48;;
23573;SDS011;11965;53.640;10.050;2023-04-06T02:50:52;14.61;;;14.60;;
23573;SDS011;11965;53.640;10.050;2023-04-06T02:53:19;14.40;;;14.40;;
23573;SDS011;11965;53.640;10.050;2023-04-06T02:55:46;14.87;;;14.87;;
23573;SDS011;11965;53.640;10.050;2023-04-06T02:58:13;15.14;;;15.11;;
23573;SDS011;11965;53.640;10.050;2023-04-06T03:00:46;14.64;;;14.64;;
23573;SDS011;11965;53.640;10.050;2023-04-06T03:03:13;14.27;;;14.27;;
23573;SDS011;11965;53.640;10.050;2023-04-06T03:05:42;14.39;;;14.39;;
23573;SDS011;11965;53.640;10.050;2023-04-06T03:08:09;14.29;;;14.28;;
23573;SDS011;11965;53.640;10.050;2023-04-06T03:10:45;14.41;;;14.40;;
23573;SDS011;11965;53.640;10.050;2023-04-06T03:13:14;14.50;;;14.50;;
23573;SDS011;11965;53.640;10.050;2023-04-06T03:15:54;14.14;;;14.14;;
23573;SDS011;11965;53.640;10.050;2023-04-06T03:18:22;14.29;;;14.29;;
23573;SDS011;11965;53.640;10.050;2023-04-06T03:20:52;14.81;;;14.69;;
23573;SDS011;11965;53.640;10.050;2023-04-06T03:23:21;13.73;;;13.64;;
23573;SDS011;11965;53.640;10.050;2023-04-06T03:25:53;14.82;;;14.81;;
23573;SDS011;11965;53.640;10.050;2023-04-06T03:28:20;13.47;;;13.45;;
23573;SDS011;11965;53.640;10.050;2023-04-06T03:31:01;13.87;;;13.85;;
23573;SDS011;11965;53.640;10.050;2023-04-06T03:33:57;14.25;;;14.24;;
23573;SDS011;11965;53.640;10.050;2023-04-06T03:36:29;14.19;;;14.18;;
23573;SDS011;11965;53.640;10.050;2023-04-06T03:38:57;13.57;;;13.48;;
23573;SDS011;11965;53.640;10.050;2023-04-06T03:41:24;13.52;;;13.44;;
23573;SDS011;11965;53.640;10.050;2023-04-06T03:44:05;13.88;;;13.88;;
23573;SDS011;11965;53.640;10.050;2023-04-06T03:46:34;14.00;;;14.00;;
23573;SDS011;11965;53.640;10.050;2023-04-06T03:49:01;13.82;;;13.72;;
23573;SDS011;11965;53.640;10.050;2023-04-06T03:51:28;13.58;;;13.58;;
23573;SDS011;11965;53.640;10.050;2023-04-06T03:53:56;13.58;;;13.48;;
23573;SDS011;11965;53.640;10.050;2023-04-06T03:56:23;13.58;;;13.51;;
23573;SDS011;11965;53.640;10.050;2023-04-06T03:58:50;13.30;;;13.29;;
23573;SDS011;11965;53.640;10.050;2023-04-06T04:01:19;13.92;;;13.92;;
23573;SDS011;11965;53.640;10.050;2023-04-06T04:03:48;13.89;;;13.81;;
23573;SDS011;11965;53.640;10.050;2023-04-06T04:06:15;14.17;;;13.97;;
23573;SDS011;11965;53.640;10.050;2023-04-06T04:08:42;14.06;;;13.96;;
23573;SDS011;11965;53.640;10.050;2023-04-06T04:11:09;14.42;;;14.40;;
23573;SDS011;11965;53.640;10.050;2023-04-06T04:13:36;13.59;;;13.56;;
23573;SDS011;11965;53.640;10.050;2023-04-06T04:16:05;13.51;;;13.51;;
23573;SDS011;11965;53.640;10.050;2023-04-06T04:18:32;13.00;;;12.99;;
23573;SDS011;11965;53.640;10.050;2023-04-06T04:21:00;13.27;;;13.27;;
23573;SDS011;11965;53.640;10.050;2023-04-06T04:23:28;13.95;;;13.86;;
23573;SDS011;11965;53.640;10.050;2023-04-06T04:25:55;13.43;;;13.43;;
23573;SDS011;11965;53.640;10.050;2023-04-06T04:28:22;13.45;;;13.44;;
23573;SDS011;11965;53.640;10.050;2023-04-06T04:30:50;14.25;;;14.21;;
23573;SDS011;11965;53.640;10.050;2023-04-06T04:33:18;14.08;;;14.07;;
23573;SDS011;11965;53.640;10.050;2023-04-06T04:35:45;14.45;;;14.45;;
23573;SDS011;11965;53.640;10.050;2023-04-06T04:38:17;15.31;;;15.24;;
23573;SDS011;11965;53.640;10.050;2023-04-06T04:40:50;15.02;;;15.00;;
23573;SDS011;11965;53.640;10.050;2023-04-06T04:43:17;14.84;;;14.77;;
23573;SDS011;11965;53.640;10.050;2023-04-06T04:45:44;15.06;;;14.91;;
23573;SDS011;11965;53.640;10.050;2023-04-06T04:48:37;14.89;;;14.89;;
23573;SDS011;11965;53.640;10.050;2023-04-06T04:51:05;14.71;;;14.58;;
23573;SDS011;11965;53.640;10.050;2023-04-06T04:53:48;14.85;;;14.85;;
23573;SDS011;11965;53.640;10.050;2023-04-06T04:56:21;14.61;;;14.53;;
23573;SDS011;11965;53.640;10.050;2023-04-06T04:58:53;14.31;;;14.27;;
23573;SDS011;11965;53.640;10.050;2023-04-06T05:01:21;14.57;;;14.51;;
23573;SDS011;11965;53.640;10.050;2023-04-06T05:03:49;15.14;;;14.86;;
23573;SDS011;11965;53.640;10.050;2023-04-06T05:06:16;13.89;;;13.87;;
23573;SDS011;11965;53.640;10.050;2023-04-06T05:08:44;13.92;;;13.85;;
23573;SDS011;11965;53.640;10.050;2023-04-06T05:11:13;14.33;;;14.19;;
23573;SDS011;11965;53.640;10.050;2023-04-06T05:13:44;14.93;;;14.62;;
23573;SDS011;11965;53.640;10.050;2023-04-06T05:16:16;14.46;;;14.24;;
23573;SDS011;11965;53.640;10.050;2023-04-06T05:18:44;13.73;;;13.68;;
23573;SDS011;11965;53.640;10.050;2023-04-06T05:21:11;14.11;;;14.09;;
23573;SDS011;11965;53.640;10.050;2023-04-06T05:23:50;13.93;;;13.74;;
23573;SDS011;11965;53.640;10.050;2023-04-06T05:26:19;14.31;;;14.29;;
23573;SDS011;11965;53.640;10.050;2023-04-06T05:28:49;14.15;;;14.15;;
23573;SDS011;11965;53.640;10.050;2023-04-06T05:31:17;14.13;;;14.13;;
23573;SDS011;11965;53.640;10.050;2023-04-06T05:33:47;14.40;;;14.40;;
23573;SDS011;11965;53.640;10.050;2023-04-06T05:36:21;14.08;;;14.08;;
23573;SDS011;11965;53.640;10.050;2023-04-06T05:38:49;14.71;;;14.71;;
23573;SDS011;11965;53.640;10.050;2023-04-06T05:41:33;14.40;;;14.31;;
23573;SDS011;11965;53.640;10.050;2023-04-06T05:44:00;14.90;;;14.66;;
23573;SDS011;11965;53.640;10.050;2023-04-06T05:46:28;14.61;;;14.59;;
23573;SDS011;11965;53.640;10.050;2023-04-06T05:48:57;14.58;;;14.55;;
23573;SDS011;11965;53.640;10.050;2023-04-06T05:51:28;15.08;;;15.08;;
23573;SDS011;11965;53.640;10.050;2023-04-06T05:53:55;15.13;;;15.13;;
23573;SDS011;11965;53.640;10.050;2023-04-06T05:56:23;14.76;;;14.76;;
23573;SDS011;11965;53.640;10.050;2023-04-06T05:58:52;15.81;;;15.71;;
23573;SDS011;11965;53.640;10.050;2023-04-06T06:01:25;16.36;;;16.29;;
23573;SDS011;11965;53.640;10.050;2023-04-06T06:03:53;16.07;;;16.07;;
23573;SDS011;11965;53.640;10.050;2023-04-06T06:06:20;16.64;;;16.56;;
23573;SDS011;11965;53.640;10.050;2023-04-06T06:09:06;16.59;;;16.59;;
23573;SDS011;11965;53.640;10.050;2023-04-06T06:11:39;16.60;;;16.60;;
23573;SDS011;11965;53.640;10.050;2023-04-06T06:14:09;16.81;;;16.81;;
23573;SDS011;11965;53.640;10.050;2023-04-06T06:16:38;16.94;;;16.86;;
23573;SDS011;11965;53.640;10.050;2023-04-06T06:19:07;17.45;;;17.43;;
23573;SDS011;11965;53.640;10.050;2023-04-06T06:21:34;17.33;;;17.14;;
23573;SDS011;11965;53.640;10.050;2023-04-06T06:24:03;17.99;;;17.87;;
23573;SDS011;11965;53.640;10.050;2023-04-06T06:26:30;17.75;;;17.75;;
23573;SDS011;11965;53.640;10.050;2023-04-06T06:28:58;18.21;;;18.21;;
23573;SDS011;11965;53.640;10.050;2023-04-06T06:31:27;17.68;;;17.68;;
23573;SDS011;11965;53.640;10.050;2023-04-06T06:33:54;17.83;;;17.83;;
23573;SDS011;11965;53.640;10.050;2023-04-06T06:36:21;18.51;;;18.28;;
23573;SDS011;11965;53.640;10.050;2023-04-06T06:38:49;18.37;;;18.30;;
23573;SDS011;11965;53.640;10.050;2023-04-06T06:41:18;18.85;;;18.85;;
23573;SDS011;11965;53.640;10.050;2023-04-06T06:43:45;18.68;;;18.65;;
23573;SDS011;11965;53.640;10.050;2023-04-06T06:46:12;19.06;;;19.06;;
23573;SDS011;11965;53.640;10.050;2023-04-06T06:48:41;19.16;;;19.16;;
23573;SDS011;11965;53.640;10.050;2023-04-06T06:51:08;18.72;;;18.72;;
23573;SDS011;11965;53.640;10.050;2023-04-06T06:53:39;19.53;;;19.49;;
23573;SDS011;11965;53.640;10.050;2023-04-06T06:56:06;19.54;;;19.54;;
23573;SDS011;11965;53.640;10.050;2023-04-06T06:58:33;19.51;;;19.51;;
23573;SDS011;11965;53.640;10.050;2023-04-06T07:01:00;19.02;;;19.02;;
23573;SDS011;11965;53.640;10.050;2023-04-06T07:03:29;18.86;;;18.86;;
23573;SDS011;11965;53.640;10.050;2023-04-06T07:05:57;18.66;;;18.66;;
23573;SDS011;11965;53.640;10.050;2023-04-06T07:08:24;18.63;;;18.63;;
23573;SDS011;11965;53.640;10.050;2023-04-06T07:10:52;18.36;;;18.36;;
23573;SDS011;11965;53.640;10.050;2023-04-06T07:13:21;17.76;;;17.76;;
23573;SDS011;11965;53.640;10.050;2023-04-06T07:15:51;17.00;;;17.00;;
23573;SDS011;11965;53.640;10.050;2023-04-06T07:18:18;16.70;;;16.70;;
23573;SDS011;11965;53.640;10.050;2023-04-06T07:20:46;15.48;;;15.48;;
23573;SDS011;11965;53.640;10.050;2023-04-06T07:23:15;14.37;;;14.37;;
23573;SDS011;11965;53.640;10.050;2023-04-06T07:25:42;14.49;;;14.49;;
23573;SDS011;11965;53.640;10.050;2023-04-06T07:28:10;14.36;;;14.36;;
23573;SDS011;11965;53.640;10.050;2023-04-06T07:30:37;13.69;;;13.69;;
23573;SDS011;11965;53.640;10.050;2023-04-06T07:33:05;14.00;;;14.00;;
23573;SDS011;11965;53.640;10.050;2023-04-06T07:35:34;13.82;;;13.82;;
23573;SDS011;11965;53.640;10.050;2023-04-06T07:38:02;13.52;;;13.52;;
23573;SDS011;11965;53.640;10.050;2023-04-06T07:40:32;13.38;;;13.38;;
23573;SDS011;11965;53.640;10.050;2023-04-06T07:42:59;13.18;;;13.18;;
23573;SDS011;11965;53.640;10.050;2023-04-06T07:45:28;13.10;;;13.10;;
23573;SDS011;11965;53.640;10.050;2023-04-06T07:47:55;13.07;;;13.07;;
23573;SDS011;11965;53.640;10.050;2023-04-06T07:50:24;12.41;;;12.41;;
23573;SDS011;11965;53.640;10.050;2023-04-06T07:52:52;12.39;;;12.38;;
23573;SDS011;11965;53.640;10.050;2023-04-06T07:55:19;12.36;;;12.36;;
23573;SDS011;11965;53.640;10.050;2023-04-06T07:57:48;12.31;;;12.30;;
23573;SDS011;11965;53.640;10.050;2023-04-06T08:00:16;12.40;;;12.40;;
23573;SDS011;11965;53.640;10.050;2023-04-06T08:02:43;12.02;;;12.01;;
23573;SDS011;11965;53.640;10.050;2023-04-06T08:05:10;11.71;;;11.66;;
23573;SDS011;11965;53.640;10.050;2023-04-06T08:07:37;11.86;;;11.85;;
23573;SDS011;11965;53.640;10.050;2023-04-06T08:10:05;11.42;;;11.42;;
23573;SDS011;11965;53.640;10.050;2023-04-06T08:12:32;11.27;;;11.27;;
23573;SDS011;11965;53.640;10.050;2023-04-06T08:15:01;11.33;;;11.33;;
23573;SDS011;11965;53.640;10.050;2023-04-06T08:17:29;10.81;;;10.80;;
23573;SDS011;11965;53.640;10.050;2023-04-06T08:19:56;10.58;;;10.57;;
23573;SDS011;11965;53.640;10.050;2023-04-06T08:22:23;10.65;;;10.65;;
23573;SDS011;11965;53.640;10.050;2023-04-06T08:24:50;10.06;;;10.01;;
23573;SDS011;11965;53.640;10.050;2023-04-06T08:27:17;9.81;;;9.81;;
23573;SDS011;11965;53.640;10.050;2023-04-06T08:29:44;9.47;;;9.47;;
23573;SDS011;11965;53.640;10.050;2023-04-06T08:32:13;9.43;;;9.42;;
23573;SDS011;11965;53.640;10.050;2023-04-06T08:34:40;10.30;;;10.30;;
23573;SDS011;11965;53.640;10.050;2023-04-06T08:37:07;9.56;;;9.56;;
23573;SDS011;11965;53.640;10.050;2023-04-06T08:39:34;9.87;;;9.84;;
23573;SDS011;11965;53.640;10.050;2023-04-06T08:42:01;9.13;;;9.07;;
23573;SDS011;11965;53.640;10.050;2023-04-06T08:44:29;8.70;;;8.70;;
23573;SDS011;11965;53.640;10.050;2023-04-06T08:46:57;8.65;;;8.65;;
23573;SDS011;11965;53.640;10.050;2023-04-06T08:49:28;8.90;;;8.81;;
23573;SDS011;11965;53.640;10.050;2023-04-06T08:51:55;8.50;;;8.44;;
23573;SDS011;11965;53.640;10.050;2023-04-06T08:54:23;8.67;;;8.55;;
23573;SDS011;11965;53.640;10.050;2023-04-06T08:56:50;8.40;;;8.31;;
23573;SDS011;11965;53.640;10.050;2023-04-06T08:59:21;8.36;;;8.23;;
23573;SDS011;11965;53.640;10.050;2023-04-06T09:01:50;8.29;;;8.29;;
23573;SDS011;11965;53.640;10.050;2023-04-06T09:04:19;7.78;;;7.77;;
23573;SDS011;11965;53.640;10.050;2023-04-06T09:06:47;7.79;;;7.76;;
23573;SDS011;11965;53.640;10.050;2023-04-06T09:09:15;8.29;;;8.28;;
23573;SDS011;11965;53.640;10.050;2023-04-06T09:11:43;8.22;;;8.12;;
23573;SDS011;11965;53.640;10.050;2023-04-06T09:14:11;7.81;;;7.69;;
23573;SDS011;11965;53.640;10.050;2023-04-06T09:16:38;8.03;;;8.00;;
23573;SDS011;11965;53.640;10.050;2023-04-06T09:19:07;8.24;;;8.09;;
23573;SDS011;11965;53.640;10.050;2023-04-06T09:21:34;7.14;;;7.11;;
23573;SDS011;11965;53.640;10.050;2023-04-06T09:24:03;7.03;;;6.95;;
23573;SDS011;11965;53.640;10.050;2023-04-06T09:26:43;6.81;;;6.80;;
23573;SDS011;11965;53.640;10.050;2023-04-06T09:29:21;7.32;;;7.32;;
23573;SDS011;11965;53.640;10.050;2023-04-06T09:31:49;7.00;;;6.97;;
23573;SDS011;11965;53.640;10.050;2023-04-06T09:34:20;7.25;;;7.19;;
23573;SDS011;11965;53.640;10.050;2023-04-06T09:36:48;7.39;;;7.38;;
23573;SDS011;11965;53.640;10.050;2023-04-06T09:39:21;7.37;;;7.37;;
23573;SDS011;11965;53.640;10.050;2023-04-06T09:41:50;7.42;;;7.42;;
23573;SDS011;11965;53.640;10.050;2023-04-06T09:44:18;6.85;;;6.85;;
23573;SDS011;11965;53.640;10.050;2023-04-06T09:46:45;7.27;;;7.27;;
23573;SDS011;11965;53.640;10.050;2023-04-06T09:49:13;6.88;;;6.88;;
23573;SDS011;11965;53.640;10.050;2023-04-06T09:51:44;6.82;;;6.82;;
23573;SDS011;11965;53.640;10.050;2023-04-06T09:54:15;6.92;;;6.92;;
23573;SDS011;11965;53.640;10.050;2023-04-06T09:56:50;7.20;;;7.20;;
23573;SDS011;11965;53.640;10.050;2023-04-06T09:59:21;7.79;;;7.79;;
23573;SDS011;11965;53.640;10.050;2023-04-06T10:01:56;7.90;;;7.90;;
23573;SDS011;11965;53.640;10.050;2023-04-06T10:04:28;7.61;;;7.61;;
23573;SDS011;11965;53.640;10.050;2023-04-06T10:07:07;7.71;;;7.71;;
23573;SDS011;11965;53.640;10.050;2023-04-06T10:09:38;8.24;;;8.24;;
23573;SDS011;11965;53.640;10.050;2023-04-06T10:12:07;8.83;;;8.83;;
23573;SDS011;11965;53.640;10.050;2023-04-06T10:14:35;8.78;;;8.78;;
23573;SDS011;11965;53.640;10.050;2023-04-06T10:17:02;8.72;;;8.72;;
23573;SDS011;11965;53.640;10.050;2023-04-06T10:19:32;8.07;;;8.07;;
23573;SDS011;11965;53.640;10.050;2023-04-06T10:22:06;8.58;;;8.58;;
23573;SDS011;11965;53.640;10.050;2023-04-06T10:24:39;8.47;;;8.47;;
23573;SDS011;11965;53.640;10.050;2023-04-06T10:27:08;8.74;;;8.65;;
23573;SDS011;11965;53.640;10.050;2023-04-06T10:29:43;8.07;;;8.00;;
23573;SDS011;11965;53.640;10.050;2023-04-06T10:32:11;8.30;;;8.28;;
23573;SDS011;11965;53.640;10.050;2023-04-06T10:34:38;7.45;;;7.45;;
23573;SDS011;11965;53.640;10.050;2023-04-06T10:37:12;7.35;;;7.35;;
23573;SDS011;11965;53.640;10.050;2023-04-06T10:39:47;7.31;;;7.31;;
23573;SDS011;11965;53.640;10.050;2023-04-06T10:42:24;7.65;;;7.65;;
23573;SDS011;11965;53.640;10.050;2023-04-06T10:44:51;7.61;;;7.61;;
23573;SDS011;11965;53.640;10.050;2023-04-06T10:47:19;7.58;;;7.57;;
23573;SDS011;11965;53.640;10.050;2023-04-06T10:49:46;8.69;;;8.65;;
23573;SDS011;11965;53.640;10.050;2023-04-06T10:52:13;8.70;;;8.70;;
23573;SDS011;11965;53.640;10.050;2023-04-06T10:54:41;8.53;;;8.53;;
23573;SDS011;11965;53.640;10.050;2023-04-06T10:57:10;9.35;;;9.35;;
23573;SDS011;11965;53.640;10.050;2023-04-06T10:59:43;9.42;;;9.42;;
23573;SDS011;11965;53.640;10.050;2023-04-06T11:02:18;9.61;;;9.61;;
23573;SDS011;11965;53.640;10.050;2023-04-06T11:04:53;9.16;;;9.16;;
23573;SDS011;11965;53.640;10.050;2023-04-06T11:07:22;10.35;;;10.35;;
23573;SDS011;11965;53.640;10.050;2023-04-06T11:09:50;10.70;;;10.70;;
23573;SDS011;11965;53.640;10.050;2023-04-06T11:12:20;10.49;;;10.47;;
23573;SDS011;11965;53.640;10.050;2023-04-06T11:14:54;11.01;;;11.01;;
23573;SDS011;11965;53.640;10.050;2023-04-06T11:17:26;12.28;;;12.28;;
23573;SDS011;11965;53.640;10.050;2023-04-06T11:19:53;11.41;;;11.41;;
23573;SDS011;11965;53.640;10.050;2023-04-06T11:22:20;11.06;;;11.05;;
23573;SDS011;11965;53.640;10.050;2023-04-06T11:24:47;10.33;;;10.29;;
23573;SDS011;11965;53.640;10.050;2023-04-06T11:27:15;11.84;;;11.84;;
23573;SDS011;11965;53.640;10.050;2023-04-06T11:29:42;12.60;;;12.60;;
23573;SDS011;11965;53.640;10.050;2023-04-06T11:32:19;11.93;;;11.93;;
23573;SDS011;11965;53.640;10.050;2023-04-06T11:34:48;12.82;;;12.81;;
23573;SDS011;11965;53.640;10.050;2023-04-06T11:37:15;13.24;;;13.18;;
23573;SDS011;11965;53.640;10.050;2023-04-06T11:39:43;12.99;;;12.98;;
23573;SDS011;11965;53.640;10.050;2023-04-06T11:42:20;13.14;;;12.88;;
23573;SDS011;11965;53.640;10.050;2023-04-06T11:44:53;12.70;;;12.70;;
23573;SDS011;11965;53.640;10.050;2023-04-06T11:47:28;12.67;;;12.67;;
23573;SDS011;11965;53.640;10.050;2023-04-06T11:50:04;12.73;;;12.73;;
23573;SDS011;11965;53.640;10.050;2023-04-06T11:52:33;12.91;;;12.91;;
23573;SDS011;11965;53.640;10.050;2023-04-06T11:55:09;13.17;;;13.17;;
23573;SDS011;11965;53.640;10.050;2023-04-06T11:57:38;13.28;;;13.27;;
23573;SDS011;11965;53.640;10.050;2023-04-06T12:00:05;13.83;;;13.67;;
23573;SDS011;11965;53.640;10.050;2023-04-06T12:02:34;13.90;;;13.89;;
23573;SDS011;11965;53.640;10.050;2023-04-06T12:05:05;13.48;;;13.48;;
23573;SDS011;11965;53.640;10.050;2023-04-06T12:07:33;13.85;;;13.82;;
23573;SDS011;11965;53.640;10.050;2023-04-06T12:10:02;13.13;;;13.12;;
23573;SDS011;11965;53.640;10.050;2023-04-06T12:12:30;12.64;;;12.52;;
23573;SDS011;11965;53.640;10.050;2023-04-06T12:14:57;13.67;;;13.46;;
23573;SDS011;11965;53.640;10.050;2023-04-06T12:17:25;12.53;;;12.53;;
23573;SDS011;11965;53.640;10.050;2023-04-06T12:19:53;12.89;;;12.89;;
23573;SDS011;11965;53.640;10.050;2023-04-06T12:22:20;12.37;;;12.37;;
23573;SDS011;11965;53.640;10.050;2023-04-06T12:24:47;12.30;;;12.29;;
23573;SDS011;11965;53.640;10.050;2023-04-06T12:27:14;12.10;;;12.09;;
23573;SDS011;11965;53.640;10.050;2023-04-06T12:29:42;12.46;;;12.22;;
23573;SDS011;11965;53.640;10.050;2023-04-06T12:32:09;12.98;;;12.97;;
23573;SDS011;11965;53.640;10.050;2023-04-06T12:34:37;12.30;;;12.30;;
23573;SDS011;11965;53.640;10.050;2023-04-06T12:37:06;12.17;;;12.08;;
23573;SDS011;11965;53.640;10.050;2023-04-06T12:39:33;12.17;;;12.10;;
23573;SDS011;11965;53.640;10.050;2023-04-06T12:42:00;11.77;;;11.77;;
23573;SDS011;11965;53.640;10.050;2023-04-06T12:44:27;11.81;;;11.81;;
23573;SDS011;11965;53.640;10.050;2023-04-06T12:46:55;12.63;;;12.62;;
23573;SDS011;11965;53.640;10.050;2023-04-06T12:49:22;12.52;;;12.38;;
23573;SDS011;11965;53.640;10.050;2023-04-06T12:51:49;12.44;;;12.16;;
23573;SDS011;11965;53.640;10.050;2023-04-06T12:54:17;11.60;;;11.58;;
23573;SDS011;11965;53.640;10.050;2023-04-06T12:56:45;12.24;;;12.24;;
23573;SDS011;11965;53.640;10.050;2023-04-06T12:59:12;12.51;;;12.51;;
23573;SDS011;11965;53.640;10.050;2023-04-06T13:01:39;12.77;;;12.77;;
23573;SDS011;11965;53.640;10.050;2023-04-06T13:04:06;12.67;;;12.67;;
23573;SDS011;11965;53.640;10.050;2023-04-06T13:06:33;12.84;;;12.79;;
23573;SDS011;11965;53.640;10.050;2023-04-06T13:09:00;12.80;;;12.80;;
23573;SDS011;11965;53.640;10.050;2023-04-06T13:11:29;12.44;;;12.44;;
23573;SDS011;11965;53.640;10.050;2023-04-06T13:13:56;12.79;;;12.75;;
23573;SDS011;11965;53.640;10.050;2023-04-06T13:16:23;12.90;;;12.90;;
23573;SDS011;11965;53.640;10.050;2023-04-06T13:18:50;12.43;;;12.43;;
23573;SDS011;11965;53.640;10.050;2023-04-06T13:21:17;12.44;;;12.44;;
23573;SDS011;11965;53.640;10.050;2023-04-06T13:23:47;12.87;;;12.87;;
23573;SDS011;11965;53.640;10.050;2023-04-06T13:26:14;12.57;;;12.57;;
23573;SDS011;11965;53.640;10.050;2023-04-06T13:28:43;12.34;;;12.34;;
23573;SDS011;11965;53.640;10.050;2023-04-06T13:31:10;12.68;;;12.65;;
23573;SDS011;11965;53.640;10.050;2023-04-06T13:33:37;12.35;;;12.35;;
23573;SDS011;11965;53.640;10.050;2023-04-06T13:36:06;12.57;;;12.57;;
23573;SDS011;11965;53.640;10.050;2023-04-06T13:38:34;12.93;;;12.93;;
23573;SDS011;11965;53.640;10.050;2023-04-06T13:41:01;12.65;;;12.59;;
23573;SDS011;11965;53.640;10.050;2023-04-06T13:43:28;13.47;;;13.47;;
23573;SDS011;11965;53.640;10.050;2023-04-06T13:45:56;12.86;;;12.86;;
23573;SDS011;11965;53.640;10.050;2023-04-06T13:48:26;12.55;;;12.48;;
23573;SDS011;11965;53.640;10.050;2023-04-06T13:50:53;12.93;;;12.91;;
23573;SDS011;11965;53.640;10.050;2023-04-06T13:53:20;13.34;;;13.30;;
23573;SDS011;11965;53.640;10.050;2023-04-06T13:55:52;12.88;;;12.70;;
23573;SDS011;11965;53.640;10.050;2023-04-06T13:58:19;12.86;;;12.86;;
23573;SDS011;11965;53.640;10.050;2023-04-06T14:00:46;12.50;;;12.50;;
23573;SDS011;11965;53.640;10.050;2023-04-06T14:03:14;13.25;;;13.25;;
23573;SDS011;11965;53.640;10.050;2023-04-06T14:05:41;12.97;;;12.97;;
23573;SDS011;11965;53.640;10.050;2023-04-06T14:08:08;13.33;;;13.33;;
23573;SDS011;11965;53.640;10.050;2023-04-06T14:10:38;13.82;;;13.82;;
23573;SDS011;11965;53.640;10.050;2023-04-06T14:13:07;13.17;;;13.17;;
23573;SDS011;11965;53.640;10.050;2023-04-06T14:15:34;13.47;;;13.46;;
23573;SDS011;11965;53.640;10.050;2023-04-06T14:18:01;13.90;;;13.90;;
23573;SDS011;11965;53.640;10.050;2023-04-06T14:20:29;13.64;;;13.64;;
23573;SDS011;11965;53.640;10.050;2023-04-06T14:22:59;13.99;;;13.98;;
23573;SDS011;11965;53.640;10.050;2023-04-06T14:25:26;14.06;;;14.06;;